Airfield :
LOGIN :

Register | Disclaimer

   EN    FR    IT 

 










Legend :    VFR   Marginal VFR   IFR   Intensive IFR   Very Intensive IFR
Visi :
Ceiling :
>= 8 km
>= 3000ft
5 to 8 km
1000 to 3000 ft
1500m to 5 km
500 to 1000 ft
800 to 1500m
200 to 500 ft
< 800m
< 200 ft
Symbols :   Thunderstorms  Fog  Heavy snow  Heavy precipitations  Wind > 20 kt
SIGMETs :     Misc.  Thunderstorms  Icing  Turbulence  Mountain Waves  Volcanic Ashes






- Airport Elevation : 397 ft
- IATA code : IAS


LRIA - Iasi

CURRENT METAR :
  • 270100Z 28004KT 240V330 CAVOK 06/01 Q0996

EXPIRED METARs :
  • 270030Z 29001KT CAVOK 08/01 Q0996
  • 270000Z VRB01KT CAVOK 08/02 Q0996
  • 262330Z VRB02KT CAVOK 08/01 Q0996
  • 262300Z VRB02KT CAVOK 07/01 Q0996
  • 262230Z 05002KT CAVOK 09/01 Q0996
  • 262200Z 07004KT CAVOK 09/01 Q0996

TAF TAF LRIA
Valid from the 27 at 00:00 until the 27 at 09:00 UTC


262300Z 2700/2709 VRB04KT CAVOK
BECMG 2703/2705 31012KT SCT040CB
BECMG 2706/2708 5000 -RA BKN010 BKN025



MET'MAP, your aeronautical weather chart ! - Copyright ORBIFLY December 2007 - Disclaimer

ORBIFLY MET'MAP TEAM :

Programming & Development : Alexandra Zaïnal
Concept & original design : Baudouin d'Aumeries
Assistance for programming : Marc-Olivier Méhu
Technical & hardware support : Manuel Goepfert

Contact : metmap@orbifly.com




SOURCES & CREDITS :

   NOAA